createdAt,value
2019-05-18T00:02:18.892Z,14.30
2019-05-18T00:04:50.470Z,14.13
2019-05-18T00:07:21.681Z,13.13
2019-05-18T00:09:53.040Z,13.13
2019-05-18T00:12:24.297Z,19.60
2019-05-18T00:14:55.871Z,26.42
2019-05-18T00:17:27.430Z,17.25
2019-05-18T00:19:58.838Z,22.33
2019-05-18T00:22:30.059Z,18.57
2019-05-18T00:25:01.591Z,15.83
2019-05-18T00:27:33.368Z,18.95
2019-05-18T00:30:05.356Z,16.77
2019-05-18T00:32:36.556Z,25.77
2019-05-18T00:35:08.284Z,24.80
2019-05-18T00:37:39.896Z,20.37
2019-05-18T00:40:11.493Z,25.57
2019-05-18T00:42:43.012Z,20.17
2019-05-18T00:45:14.689Z,15.47
2019-05-18T00:47:46.182Z,14.83
2019-05-18T00:50:17.985Z,17.10
2019-05-18T00:52:49.400Z,19.07
2019-05-18T00:55:20.793Z,18.37
2019-05-18T00:57:52.081Z,18.07
2019-05-18T01:00:23.408Z,26.33
2019-05-18T01:02:55.076Z,17.02
2019-05-18T01:05:26.222Z,17.87
2019-05-18T01:07:57.737Z,19.75
2019-05-18T01:10:29.090Z,24.23
2019-05-18T01:13:00.562Z,20.55
2019-05-18T01:15:31.933Z,21.17
2019-05-18T01:18:02.959Z,22.40
2019-05-18T01:20:34.123Z,24.20
2019-05-18T01:23:05.259Z,26.57
2019-05-18T01:25:36.361Z,25.73
2019-05-18T01:28:07.817Z,26.35
2019-05-18T01:30:39.353Z,27.73
2019-05-18T01:33:10.553Z,25.63
2019-05-18T01:35:41.987Z,22.42
2019-05-18T01:38:13.617Z,26.27
2019-05-18T01:40:44.898Z,22.93
2019-05-18T01:43:16.806Z,21.33
2019-05-18T01:45:48.672Z,23.52
2019-05-18T01:48:20.222Z,21.60
2019-05-18T01:50:51.811Z,23.02
2019-05-18T01:53:23.288Z,23.05
2019-05-18T01:55:54.850Z,23.22
2019-05-18T01:58:26.237Z,22.58
2019-05-18T02:00:57.613Z,19.80
2019-05-18T02:03:29.339Z,26.65
2019-05-18T02:06:00.887Z,19.90
2019-05-18T02:08:33.489Z,17.25
2019-05-18T02:11:05.172Z,20.82
2019-05-18T02:13:36.635Z,15.90
2019-05-18T02:16:08.294Z,17.05
2019-05-18T02:18:39.867Z,17.37
2019-05-18T02:21:11.399Z,17.17
2019-05-18T02:23:42.849Z,17.05
2019-05-18T02:26:14.438Z,18.05
2019-05-18T02:28:45.847Z,15.75
2019-05-18T02:31:17.339Z,16.10
2019-05-18T02:33:49.016Z,14.85
2019-05-18T02:36:20.812Z,13.58
2019-05-18T02:38:52.266Z,12.93
2019-05-18T02:41:24.068Z,12.65
2019-05-18T02:43:55.543Z,13.50
2019-05-18T02:46:27.090Z,18.55
2019-05-18T02:48:58.742Z,21.90
2019-05-18T02:51:30.393Z,21.57
2019-05-18T02:54:01.779Z,19.85
2019-05-18T02:56:33.381Z,28.02
2019-05-18T02:59:04.779Z,26.15
2019-05-18T03:01:36.405Z,28.10
2019-05-18T03:04:08.885Z,35.13
2019-05-18T03:06:40.451Z,39.25
2019-05-18T03:09:11.799Z,44.18
2019-05-18T03:11:44.109Z,33.10
2019-05-18T03:14:15.589Z,31.95
2019-05-18T03:16:46.883Z,25.97
2019-05-18T03:19:18.200Z,30.48
2019-05-18T03:21:49.634Z,31.85
2019-05-18T03:24:20.931Z,30.50
2019-05-18T03:26:52.251Z,46.77
2019-05-18T03:29:23.583Z,52.25
2019-05-18T03:31:55.288Z,41.95
2019-05-18T03:34:26.608Z,43.10
2019-05-18T03:36:58.428Z,46.92
2019-05-18T03:39:30.532Z,40.45
2019-05-18T03:42:02.389Z,38.70
2019-05-18T03:44:35.284Z,37.13
2019-05-18T03:47:07.067Z,45.92
2019-05-18T03:49:38.618Z,44.77
2019-05-18T03:52:10.000Z,50.92
2019-05-18T03:54:41.335Z,45.60
2019-05-18T03:57:12.728Z,47.00
2019-05-18T03:59:44.310Z,49.45
2019-05-18T04:02:15.706Z,45.63
2019-05-18T04:04:47.394Z,50.12
2019-05-18T04:07:18.935Z,51.48
2019-05-18T04:09:50.315Z,50.58
2019-05-18T04:12:21.616Z,51.70
2019-05-18T04:14:53.236Z,53.20
2019-05-18T04:17:24.822Z,50.63
2019-05-18T04:19:56.298Z,50.63
2019-05-18T04:22:27.693Z,51.25
2019-05-18T04:24:59.525Z,51.30
2019-05-18T04:27:31.334Z,53.02
2019-05-18T04:30:03.152Z,52.20
2019-05-18T04:32:34.749Z,48.50
2019-05-18T04:35:06.582Z,54.80
2019-05-18T04:37:38.223Z,58.13
2019-05-18T04:40:10.224Z,54.15
2019-05-18T04:42:41.526Z,55.28
2019-05-18T04:45:13.053Z,60.55
2019-05-18T04:47:48.536Z,57.65
2019-05-18T04:50:17.949Z,58.38
2019-05-18T04:52:49.451Z,59.20
2019-05-18T04:55:21.092Z,58.28
2019-05-18T04:57:52.655Z,58.78
2019-05-18T05:00:24.087Z,68.87
2019-05-18T05:02:55.817Z,53.05
2019-05-18T05:05:27.249Z,58.73
2019-05-18T05:07:58.801Z,61.23
2019-05-18T05:10:30.135Z,54.97
2019-05-18T05:13:01.457Z,53.87
2019-05-18T05:15:32.652Z,50.83
2019-05-18T05:18:03.869Z,53.80
2019-05-18T05:20:35.101Z,53.90
2019-05-18T05:23:06.392Z,51.03
2019-05-18T05:25:37.898Z,50.53
2019-05-18T05:28:09.503Z,51.27
2019-05-18T05:30:40.765Z,45.30
2019-05-18T05:33:11.911Z,56.03
2019-05-18T05:35:43.110Z,54.07
2019-05-18T05:38:14.088Z,51.07
2019-05-18T05:40:45.115Z,56.37
2019-05-18T05:43:16.263Z,52.70
2019-05-18T05:45:47.574Z,53.40
2019-05-18T05:48:18.981Z,52.57
2019-05-18T05:50:50.312Z,43.77
2019-05-18T05:53:21.701Z,47.70
2019-05-18T05:55:52.875Z,53.00
2019-05-18T05:58:24.154Z,47.03
2019-05-18T06:00:55.688Z,47.30
2019-05-18T06:03:26.892Z,55.13
2019-05-18T06:05:58.060Z,54.67
2019-05-18T06:08:29.130Z,55.03
2019-05-18T06:11:00.430Z,54.83
2019-05-18T06:13:31.809Z,55.03
2019-05-18T06:16:02.840Z,63.43
2019-05-18T06:18:35.048Z,50.47
2019-05-18T06:21:06.115Z,47.47
2019-05-18T06:23:37.536Z,47.97
2019-05-18T06:26:08.874Z,52.67
2019-05-18T06:28:40.033Z,49.47
2019-05-18T06:31:11.269Z,47.63
2019-05-18T06:33:42.471Z,44.77
2019-05-18T06:36:13.539Z,42.20
2019-05-18T06:38:44.868Z,50.10
2019-05-18T06:41:16.138Z,50.50
2019-05-18T06:43:47.059Z,49.33
2019-05-18T06:46:18.508Z,40.63
2019-05-18T06:48:49.471Z,41.73
2019-05-18T06:51:20.448Z,43.83
2019-05-18T06:53:51.900Z,51.60
2019-05-18T06:56:23.637Z,42.50
2019-05-18T06:58:57.123Z,42.90
2019-05-18T07:01:28.992Z,49.70
2019-05-18T07:04:00.272Z,45.43
2019-05-18T07:06:31.055Z,48.37
2019-05-18T07:09:02.333Z,52.13
2019-05-18T07:11:34.698Z,49.87
2019-05-18T07:14:05.865Z,49.53
2019-05-18T07:16:36.934Z,52.23
2019-05-18T07:19:08.088Z,52.97
2019-05-18T07:21:39.193Z,48.20
2019-05-18T07:24:10.545Z,50.80
2019-05-18T07:26:41.749Z,49.53
2019-05-18T07:29:14.444Z,47.60
2019-05-18T07:31:45.516Z,47.20
2019-05-18T07:34:16.470Z,48.10
2019-05-18T07:36:47.779Z,46.43
2019-05-18T07:39:18.722Z,58.10
2019-05-18T07:41:50.160Z,42.30
2019-05-18T07:44:21.149Z,40.57
2019-05-18T07:46:52.449Z,37.73
2019-05-18T07:49:23.644Z,35.40
2019-05-18T07:51:55.332Z,36.33
2019-05-18T07:54:26.690Z,38.53
2019-05-18T07:56:58.212Z,32.27
2019-05-18T07:59:29.360Z,34.60
2019-05-18T08:02:00.246Z,31.50
2019-05-18T08:04:32.369Z,27.57
2019-05-18T08:07:03.576Z,31.40
2019-05-18T08:09:35.420Z,29.43
2019-05-18T08:12:06.675Z,28.77
2019-05-18T08:14:37.949Z,29.50
2019-05-18T08:17:09.123Z,29.67
2019-05-18T08:19:40.224Z,25.93
2019-05-18T08:22:11.326Z,27.63
2019-05-18T08:24:43.538Z,27.87
2019-05-18T08:27:14.403Z,27.17
2019-05-18T08:29:45.648Z,26.30
2019-05-18T08:32:18.059Z,25.20
2019-05-18T08:34:49.314Z,24.37
2019-05-18T08:37:20.400Z,25.83
2019-05-18T08:39:51.828Z,24.07
2019-05-18T08:42:23.099Z,23.90
2019-05-18T08:44:54.213Z,23.67
2019-05-18T08:47:25.425Z,23.47
2019-05-18T08:49:56.637Z,21.97
2019-05-18T08:52:27.791Z,25.27
2019-05-18T08:54:59.037Z,23.43
2019-05-18T08:57:30.189Z,22.07
2019-05-18T09:00:01.601Z,20.93
2019-05-18T09:02:33.152Z,22.20
2019-05-18T09:05:05.063Z,21.30
2019-05-18T09:07:36.439Z,20.30
2019-05-18T09:10:08.532Z,22.57
2019-05-18T09:12:39.632Z,17.13
2019-05-18T09:15:13.123Z,17.90
2019-05-18T09:17:44.412Z,18.80
2019-05-18T09:20:15.641Z,18.90
2019-05-18T09:22:46.905Z,18.83
2019-05-18T09:25:18.093Z,20.23
2019-05-18T09:27:50.326Z,17.50
2019-05-18T09:30:22.051Z,17.63
2019-05-18T09:32:53.499Z,17.37
2019-05-18T09:35:24.672Z,18.50
2019-05-18T09:37:56.123Z,16.20
2019-05-18T09:40:27.661Z,19.07
2019-05-18T09:43:00.174Z,20.53
2019-05-18T09:45:31.456Z,19.70
2019-05-18T09:48:02.677Z,18.07
2019-05-18T09:50:33.725Z,19.10
2019-05-18T09:53:05.463Z,17.73
2019-05-18T09:55:36.811Z,19.77
2019-05-18T09:58:08.134Z,21.30
2019-05-18T10:00:39.298Z,20.43
2019-05-18T10:03:12.311Z,18.10
2019-05-18T10:05:43.324Z,19.20
2019-05-18T10:08:14.310Z,16.30
2019-05-18T10:10:45.745Z,18.03
2019-05-18T10:13:16.908Z,19.60
2019-05-18T10:15:48.462Z,19.90
2019-05-18T10:18:21.826Z,20.33
2019-05-18T10:20:52.480Z,19.57
2019-05-18T10:23:24.848Z,14.60
2019-05-18T10:25:55.866Z,13.70
2019-05-18T10:28:27.128Z,13.43
2019-05-18T10:30:58.126Z,17.73
2019-05-18T10:33:31.762Z,11.43
2019-05-18T10:36:02.930Z,13.93
2019-05-18T10:38:34.590Z,12.57
2019-05-18T10:41:05.801Z,13.13
2019-05-18T10:43:36.727Z,10.77
2019-05-18T10:46:07.989Z,11.13
2019-05-18T10:48:39.141Z,11.80
2019-05-18T10:51:10.363Z,12.37
2019-05-18T10:53:41.317Z,11.93
2019-05-18T10:56:12.568Z,10.03
2019-05-18T10:58:43.844Z,7.53
2019-05-18T11:01:15.171Z,8.37
2019-05-18T11:03:46.360Z,6.90
2019-05-18T11:06:17.345Z,7.43
2019-05-18T11:08:48.733Z,8.93
2019-05-18T11:11:19.843Z,9.57
2019-05-18T11:13:50.871Z,8.07
2019-05-18T11:16:21.974Z,7.60
2019-05-18T11:18:53.408Z,7.00
2019-05-18T11:21:24.697Z,7.40
2019-05-18T11:23:55.502Z,9.03
2019-05-18T11:26:26.311Z,6.33
2019-05-18T11:28:57.729Z,6.47
2019-05-18T11:31:28.740Z,6.40
2019-05-18T11:33:59.987Z,7.77
2019-05-18T11:36:30.801Z,6.70
2019-05-18T11:39:02.342Z,7.40
2019-05-18T11:41:33.508Z,8.50
2019-05-18T11:44:05.104Z,5.57
2019-05-18T11:46:36.156Z,7.27
2019-05-18T11:49:07.654Z,5.70
2019-05-18T11:51:38.782Z,4.70
2019-05-18T11:54:09.828Z,4.60
2019-05-18T11:56:40.693Z,4.97
2019-05-18T11:59:14.880Z,8.23
2019-05-18T12:01:44.349Z,4.60
2019-05-18T12:04:15.591Z,9.57
2019-05-18T12:06:47.465Z,6.40
2019-05-18T12:09:18.305Z,4.20
2019-05-18T12:11:49.032Z,4.27
2019-05-18T12:14:19.890Z,4.70
2019-05-18T12:16:50.845Z,4.57
2019-05-18T12:19:22.092Z,5.50
2019-05-18T12:21:53.456Z,5.80
2019-05-18T12:24:24.803Z,5.00
2019-05-18T12:26:55.657Z,6.00
2019-05-18T12:29:26.681Z,4.70
2019-05-18T12:31:57.487Z,5.67
2019-05-18T12:34:28.335Z,4.67
2019-05-18T12:36:59.401Z,7.40
2019-05-18T12:39:30.404Z,4.10
2019-05-18T12:42:01.699Z,6.70
2019-05-18T12:44:32.868Z,6.93
2019-05-18T12:47:03.995Z,3.53
2019-05-18T12:49:36.580Z,3.87
2019-05-18T12:52:07.666Z,5.50
2019-05-18T12:54:46.463Z,4.40
2019-05-18T12:57:12.592Z,4.07
2019-05-18T12:59:43.403Z,4.40
2019-05-18T13:02:14.805Z,3.90
2019-05-18T13:04:45.712Z,3.33
2019-05-18T13:07:16.584Z,5.13
2019-05-18T13:09:47.679Z,4.80
2019-05-18T13:12:18.749Z,5.17
2019-05-18T13:14:49.638Z,5.27
2019-05-18T13:17:21.423Z,5.07
2019-05-18T13:19:52.333Z,4.20
2019-05-18T13:22:23.228Z,7.00
2019-05-18T13:24:54.706Z,3.50
2019-05-18T13:27:38.269Z,5.40
2019-05-18T13:29:58.753Z,4.93
2019-05-18T13:32:29.606Z,4.20
2019-05-18T13:35:00.388Z,7.20
2019-05-18T13:37:31.137Z,4.30
2019-05-18T13:40:02.341Z,8.20
2019-05-18T13:42:33.191Z,4.33
2019-05-18T13:45:03.986Z,3.97
2019-05-18T13:47:35.440Z,3.70
2019-05-18T13:50:07.307Z,4.37
2019-05-18T13:52:38.633Z,5.23
2019-05-18T13:55:10.007Z,7.13
2019-05-18T13:57:41.243Z,4.47
2019-05-18T14:00:13.004Z,5.20
2019-05-18T14:02:44.096Z,4.03
2019-05-18T14:05:15.277Z,4.83
2019-05-18T14:07:46.124Z,4.43
2019-05-18T14:10:17.922Z,5.60
2019-05-18T14:12:49.282Z,3.93
2019-05-18T14:15:22.973Z,3.60
2019-05-18T14:17:53.665Z,4.30
2019-05-18T14:20:26.429Z,4.80
2019-05-18T14:22:57.442Z,5.73
2019-05-18T14:25:29.217Z,5.47
2019-05-18T14:28:00.172Z,8.70
2019-05-18T14:30:31.681Z,3.67
2019-05-18T14:33:02.977Z,3.90
2019-05-18T14:35:33.976Z,7.57
2019-05-18T14:38:05.167Z,5.53
2019-05-18T14:40:36.519Z,4.03
2019-05-18T14:43:07.905Z,3.97
2019-05-18T14:45:39.060Z,7.97
2019-05-18T14:48:10.045Z,5.17
2019-05-18T14:50:41.390Z,3.90
2019-05-18T14:53:12.951Z,4.80
2019-05-18T14:55:44.076Z,4.57
2019-05-18T14:58:15.190Z,5.90
2019-05-18T15:00:46.138Z,8.40
2019-05-18T15:03:17.315Z,4.13
2019-05-18T15:05:48.791Z,6.07
2019-05-18T15:08:19.903Z,6.37
2019-05-18T15:10:51.956Z,6.03
2019-05-18T15:13:23.061Z,6.27
2019-05-18T15:15:53.953Z,4.83
2019-05-18T15:18:25.158Z,4.40
2019-05-18T15:20:56.180Z,4.40
2019-05-18T15:23:27.408Z,4.43
2019-05-18T15:25:58.722Z,5.67
2019-05-18T15:28:29.865Z,3.57
2019-05-18T15:31:01.122Z,6.80
2019-05-18T15:33:32.546Z,4.60
2019-05-18T15:36:03.406Z,4.40
2019-05-18T15:38:34.322Z,5.63
2019-05-18T15:41:05.335Z,5.00
2019-05-18T15:43:36.477Z,22.07
2019-05-18T15:46:07.465Z,3.93
2019-05-18T15:48:38.496Z,5.10
2019-05-18T15:51:09.546Z,4.50
2019-05-18T15:53:40.705Z,5.10
2019-05-18T15:56:11.865Z,4.83
2019-05-18T15:58:43.073Z,3.43
2019-05-18T16:01:14.501Z,3.57
2019-05-18T16:03:45.983Z,4.33
2019-05-18T16:06:17.348Z,3.43
2019-05-18T16:08:48.776Z,3.77
2019-05-18T16:11:20.057Z,3.30
2019-05-18T16:13:50.905Z,3.50
2019-05-18T16:16:22.338Z,6.07
2019-05-18T16:18:53.498Z,3.50
2019-05-18T16:21:24.606Z,5.67
2019-05-18T16:23:55.533Z,4.27
2019-05-18T16:26:26.783Z,6.17
2019-05-18T16:28:57.952Z,5.20
2019-05-18T16:31:29.088Z,5.50
2019-05-18T16:34:00.135Z,6.63
2019-05-18T16:36:31.184Z,5.13
2019-05-18T16:39:02.383Z,5.13
2019-05-18T16:41:34.771Z,7.83
2019-05-18T16:44:08.560Z,5.77
2019-05-18T16:46:39.749Z,4.70
2019-05-18T16:49:11.108Z,7.63
2019-05-18T16:51:42.518Z,6.83
2019-05-18T16:54:14.615Z,6.97
2019-05-18T16:56:46.008Z,6.43
2019-05-18T16:59:17.220Z,6.27
2019-05-18T17:01:48.217Z,5.97
2019-05-18T17:04:19.310Z,6.30
2019-05-18T17:06:50.711Z,7.17
2019-05-18T17:09:21.726Z,6.40
2019-05-18T17:11:52.697Z,5.10
2019-05-18T17:14:23.712Z,5.30
2019-05-18T17:16:54.979Z,5.20
2019-05-18T17:19:26.513Z,7.03
2019-05-18T17:21:58.174Z,10.20
2019-05-18T17:24:29.200Z,7.20
2019-05-18T17:27:00.599Z,6.83
2019-05-18T17:29:31.926Z,7.43
2019-05-18T17:32:03.055Z,9.97
2019-05-18T17:34:34.010Z,8.63
2019-05-18T17:37:05.283Z,9.87
2019-05-18T17:39:36.520Z,15.33
2019-05-18T17:42:07.752Z,8.60
2019-05-18T17:44:39.248Z,12.57
2019-05-18T17:47:10.305Z,10.37
2019-05-18T17:49:41.604Z,11.03
2019-05-18T17:52:12.731Z,10.77
2019-05-18T17:54:43.847Z,10.43
2019-05-18T17:57:15.069Z,11.23
2019-05-18T17:59:49.449Z,14.17
2019-05-18T18:02:19.175Z,9.30
2019-05-18T18:04:54.160Z,9.80
2019-05-18T18:07:24.222Z,14.00
2019-05-18T18:09:55.413Z,12.27
2019-05-18T18:12:26.776Z,14.97
2019-05-18T18:14:58.051Z,11.23
2019-05-18T18:17:29.108Z,12.77
2019-05-18T18:20:00.136Z,15.70
2019-05-18T18:22:31.115Z,13.90
2019-05-18T18:25:02.104Z,14.30
2019-05-18T18:27:33.253Z,11.17
2019-05-18T18:30:04.564Z,12.90
2019-05-18T18:32:35.698Z,13.27
2019-05-18T18:35:07.085Z,9.83
2019-05-18T18:37:38.296Z,8.17
2019-05-18T18:40:09.889Z,12.73
2019-05-18T18:42:40.679Z,10.30
2019-05-18T18:45:11.996Z,7.60
2019-05-18T18:47:42.821Z,5.70
2019-05-18T18:50:14.292Z,9.27
2019-05-18T18:52:45.546Z,5.83
2019-05-18T18:55:16.921Z,4.83
2019-05-18T18:57:48.037Z,6.47
2019-05-18T19:00:19.597Z,4.10
2019-05-18T19:02:50.599Z,5.63
2019-05-18T19:05:22.011Z,7.57
2019-05-18T19:07:55.790Z,4.40
2019-05-18T19:10:26.887Z,4.73
2019-05-18T19:12:58.196Z,6.63
2019-05-18T19:15:29.909Z,4.93
2019-05-18T19:18:01.240Z,5.20
2019-05-18T19:20:32.669Z,5.50
2019-05-18T19:23:03.972Z,4.60
2019-05-18T19:25:34.954Z,4.50
2019-05-18T19:28:05.971Z,5.50
2019-05-18T19:30:37.229Z,6.23
2019-05-18T19:33:08.280Z,8.23
2019-05-18T19:35:39.447Z,5.90
2019-05-18T19:38:10.574Z,7.60
2019-05-18T19:40:41.574Z,5.73
2019-05-18T19:43:12.717Z,7.17
2019-05-18T19:45:43.972Z,5.93
2019-05-18T19:48:15.221Z,6.93
2019-05-18T19:50:47.269Z,5.40
2019-05-18T19:53:19.508Z,7.87
2019-05-18T19:55:50.425Z,9.23
2019-05-18T19:58:21.793Z,12.90
2019-05-18T20:00:52.965Z,11.63
2019-05-18T20:03:24.367Z,10.20
2019-05-18T20:05:55.339Z,11.80
2019-05-18T20:08:26.994Z,10.23
2019-05-18T20:10:58.211Z,10.13
2019-05-18T20:13:29.477Z,12.33
2019-05-18T20:16:00.650Z,8.20
2019-05-18T20:18:31.510Z,10.57
2019-05-18T20:21:02.634Z,11.47
2019-05-18T20:23:33.557Z,7.97
2019-05-18T20:26:04.736Z,9.33
2019-05-18T20:28:35.607Z,11.73
2019-05-18T20:31:06.649Z,11.63
2019-05-18T20:33:37.985Z,9.67
2019-05-18T20:36:08.954Z,9.00
2019-05-18T20:38:39.866Z,8.30
2019-05-18T20:41:11.020Z,14.10
2019-05-18T20:43:42.090Z,12.57
2019-05-18T20:46:13.390Z,15.47
2019-05-18T20:48:44.518Z,9.27
2019-05-18T20:51:15.896Z,12.07
2019-05-18T20:53:47.091Z,15.90
2019-05-18T20:56:17.987Z,10.73
2019-05-18T20:58:49.253Z,9.57
2019-05-18T21:01:20.348Z,8.93
2019-05-18T21:03:51.626Z,8.30
2019-05-18T21:06:23.057Z,9.67
2019-05-18T21:08:54.329Z,11.70
2019-05-18T21:11:25.539Z,9.23
2019-05-18T21:13:57.763Z,9.47
2019-05-18T21:16:29.084Z,10.87
2019-05-18T21:19:00.270Z,10.03
2019-05-18T21:21:31.570Z,12.80
2019-05-18T21:24:02.771Z,12.80
2019-05-18T21:26:33.808Z,10.17
2019-05-18T21:29:05.805Z,10.93
2019-05-18T21:31:36.973Z,16.30
2019-05-18T21:34:08.430Z,13.10
2019-05-18T21:36:39.633Z,14.70
2019-05-18T21:39:10.790Z,13.77
2019-05-18T21:41:41.873Z,11.33
2019-05-18T21:44:13.092Z,10.77
2019-05-18T21:46:44.306Z,13.43
2019-05-18T21:49:15.450Z,16.07
2019-05-18T21:51:46.529Z,14.00
2019-05-18T21:54:17.737Z,17.20
2019-05-18T21:56:48.920Z,16.97
2019-05-18T21:59:20.102Z,14.00
2019-05-18T22:01:51.320Z,13.20
2019-05-18T22:04:22.515Z,13.83
2019-05-18T22:06:53.752Z,16.10
2019-05-18T22:09:24.989Z,11.07
2019-05-18T22:11:56.511Z,10.70
2019-05-18T22:14:27.877Z,11.57
2019-05-18T22:16:59.070Z,11.63
2019-05-18T22:19:30.569Z,14.27
2019-05-18T22:22:01.760Z,29.20
2019-05-18T22:24:33.039Z,12.83
2019-05-18T22:27:04.318Z,10.77
2019-05-18T22:29:36.293Z,12.33
2019-05-18T22:32:07.535Z,21.53
2019-05-18T22:34:39.436Z,11.83
2019-05-18T22:37:10.854Z,17.17
2019-05-18T22:39:41.772Z,11.50
2019-05-18T22:42:14.456Z,13.97
2019-05-18T22:44:46.074Z,17.63
2019-05-18T22:47:18.609Z,16.47
2019-05-18T22:49:50.707Z,14.73
2019-05-18T22:52:22.030Z,12.53
2019-05-18T22:54:53.439Z,12.57
2019-05-18T22:57:25.025Z,11.10
2019-05-18T22:59:56.920Z,13.50
2019-05-18T23:02:28.134Z,16.70
2019-05-18T23:04:59.403Z,18.00
2019-05-18T23:07:30.895Z,13.20
2019-05-18T23:10:02.104Z,13.27
2019-05-18T23:12:33.671Z,14.70
2019-05-18T23:15:05.236Z,23.07
2019-05-18T23:17:36.813Z,15.97
2019-05-18T23:20:08.822Z,14.37
2019-05-18T23:22:39.851Z,15.93
2019-05-18T23:25:11.282Z,14.10
2019-05-18T23:27:42.309Z,12.43
2019-05-18T23:30:14.523Z,17.17
2019-05-18T23:32:45.907Z,14.13
2019-05-18T23:35:17.064Z,12.30
2019-05-18T23:37:47.970Z,16.40
2019-05-18T23:40:19.779Z,16.63
2019-05-18T23:42:51.117Z,13.50
2019-05-18T23:45:22.666Z,14.83
2019-05-18T23:47:53.773Z,15.40
2019-05-18T23:50:25.072Z,13.53
2019-05-18T23:52:56.173Z,14.20
2019-05-18T23:55:27.386Z,13.93
2019-05-18T23:58:04.968Z,16.90
